Aviation Discussion

  

Terminal Aviation Forecasts

AMENDED TAFBWI (View previous versions )
KBWI 022059Z 0221/0324 22004KT P6SM SCT060 BKN250
     FM031500 22008KT P6SM FEW200
     FM031900 21010G18KT P6SM FEW250=

TAFCHO (View previous versions )
KCHO 030522Z 0306/0406 VRB03KT P6SM FEW200
     FM031500 22005KT P6SM SCT050 SCT200
     FM031900 21010KT P6SM SCT050 SCT200
     FM040000 VRB04KT P6SM SCT050 BKN100=

TAFDCA (View previous versions )
KDCA 022335Z 0300/0324 20008KT P6SM FEW080 SCT250
     FM031600 22010G18KT P6SM FEW060=

TAFIAD (View previous versions )
KIAD 022335Z 0300/0406 22006KT P6SM SCT250
     FM031700 21010G17KT P6SM FEW060
     FM040000 20007KT P6SM BKN070=

TAFMRB (View previous versions )
KMRB 030522Z 0306/0406 20004KT P6SM FEW200
     FM031500 21010KT P6SM SCT050 SCT200
     FM040000 20005KT P6SM BKN050 BKN100
     FM040500 26004KT P6SM BKN050 BKN100=

TAFMTN (View previous versions )
KMTN 030522Z 0306/0406 NIL=


Meteorological Impact Statement

ZDC MIS 02 VALID 021905-030300
...FOR ATC PLANNING PURPOSES ONLY...
SHRA/WDLY SCT TSRA W/TOPS ABV FL400 CONTINUE E NC/SE VA AS SEA 
BREEZE FRONT MOVES SLOWLY NW THROUGH 00Z. SCT SHRA/WDLY SCT TSRA 
ALSO POSS OVER NC COASTAL WATERS. POSS IMPACTS TO J109 J121 J174 
J191 AR ROUTES. ISOL MOD TURB POSS FL270-420 OUTSD SHRA/TSRA.

Surface Map


TRACON Thunderstorm Forecast


Vertical Wind Profiles